createdAt,value
2023-04-16T00:00:39.755Z,34.79
2023-04-16T00:03:07.696Z,35.29
2023-04-16T00:05:35.763Z,34.78
2023-04-16T00:08:03.658Z,35.42
2023-04-16T00:10:31.622Z,35.63
2023-04-16T00:12:59.387Z,35.24
2023-04-16T00:15:27.232Z,35.07
2023-04-16T00:17:55.005Z,35.38
2023-04-16T00:20:22.780Z,35.40
2023-04-16T00:22:51.492Z,35.18
2023-04-16T00:25:19.222Z,35.54
2023-04-16T00:27:46.997Z,35.14
2023-04-16T00:30:15.101Z,35.15
2023-04-16T00:32:43.830Z,34.87
2023-04-16T00:35:11.685Z,34.66
2023-04-16T00:37:39.594Z,35.39
2023-04-16T00:40:08.082Z,35.03
2023-04-16T00:42:37.193Z,35.58
2023-04-16T00:45:06.009Z,35.71
2023-04-16T00:47:34.279Z,35.51
2023-04-16T00:50:04.470Z,35.39
2023-04-16T00:52:33.389Z,35.60
2023-04-16T00:55:01.559Z,36.00
2023-04-16T00:57:30.956Z,36.08
2023-04-16T00:59:59.208Z,36.74
2023-04-16T01:02:27.456Z,36.78
2023-04-16T01:04:55.889Z,36.63
2023-04-16T01:07:23.678Z,36.81
2023-04-16T01:09:51.445Z,37.30
2023-04-16T01:12:20.294Z,37.28
2023-04-16T01:14:48.094Z,36.97
2023-04-16T01:17:16.104Z,37.32
2023-04-16T01:19:43.831Z,37.95
2023-04-16T01:22:14.565Z,37.70
2023-04-16T01:24:42.430Z,37.13
2023-04-16T01:27:11.685Z,37.39
2023-04-16T01:29:39.399Z,37.64
2023-04-16T01:32:07.414Z,37.22
2023-04-16T01:34:37.690Z,37.86
2023-04-16T01:37:05.605Z,38.21
2023-04-16T01:39:33.322Z,38.50
2023-04-16T01:42:01.529Z,37.78
2023-04-16T01:44:30.991Z,37.78
2023-04-16T01:46:58.940Z,37.67
2023-04-16T01:49:26.807Z,37.48
2023-04-16T01:51:54.488Z,38.39
2023-04-16T01:54:22.227Z,37.57
2023-04-16T01:56:50.052Z,37.79
2023-04-16T01:59:21.371Z,38.28
2023-04-16T02:01:51.962Z,37.66
2023-04-16T02:04:19.781Z,37.48
2023-04-16T02:06:47.531Z,37.66
2023-04-16T02:09:15.740Z,37.65
2023-04-16T02:11:43.995Z,38.07
2023-04-16T02:14:11.826Z,37.68
2023-04-16T02:16:39.625Z,37.92
2023-04-16T02:19:16.976Z,38.11
2023-04-16T02:21:44.813Z,38.29
2023-04-16T02:24:12.593Z,38.26
2023-04-16T02:26:42.894Z,38.79
2023-04-16T02:29:16.645Z,38.41
2023-04-16T02:31:50.640Z,38.47
2023-04-16T02:34:19.351Z,38.02
2023-04-16T02:36:47.060Z,38.38
2023-04-16T02:39:14.766Z,38.77
2023-04-16T02:41:42.540Z,38.55
2023-04-16T02:44:10.384Z,38.46
2023-04-16T02:46:38.023Z,38.65
2023-04-16T02:49:05.819Z,38.22
2023-04-16T02:51:33.585Z,38.82
2023-04-16T02:54:01.311Z,38.16
2023-04-16T02:56:29.377Z,38.02
2023-04-16T02:58:57.106Z,37.71
2023-04-16T03:01:25.261Z,37.65
2023-04-16T03:03:53.214Z,37.95
2023-04-16T03:06:21.222Z,37.48
2023-04-16T03:08:49.005Z,37.59
2023-04-16T03:11:17.098Z,36.96
2023-04-16T03:13:47.952Z,36.65
2023-04-16T03:16:15.780Z,37.11
2023-04-16T03:18:43.686Z,37.06
2023-04-16T03:21:14.286Z,35.48
2023-04-16T03:23:42.253Z,34.86
2023-04-16T03:26:09.962Z,34.56
2023-04-16T03:28:37.699Z,33.80
2023-04-16T03:31:35.684Z,32.32
2023-04-16T03:34:03.596Z,32.82
2023-04-16T03:36:48.537Z,31.93
2023-04-16T03:39:16.535Z,31.40
2023-04-16T03:41:44.270Z,30.50
2023-04-16T03:44:12.183Z,30.27
2023-04-16T03:46:40.153Z,29.41
2023-04-16T03:49:08.896Z,29.51
2023-04-16T03:51:36.804Z,28.46
2023-04-16T03:54:04.963Z,27.84
2023-04-16T03:56:33.558Z,25.89
2023-04-16T03:59:01.748Z,25.60
2023-04-16T04:01:30.695Z,24.65
2023-04-16T04:03:59.028Z,23.97
2023-04-16T04:06:27.592Z,23.66
2023-04-16T04:08:55.472Z,22.53
2023-04-16T04:11:23.247Z,22.75
2023-04-16T04:13:51.395Z,21.89
2023-04-16T04:16:22.262Z,20.83
2023-04-16T04:18:50.294Z,20.53
2023-04-16T04:21:22.292Z,19.73
2023-04-16T04:23:53.914Z,19.80
2023-04-16T04:26:22.299Z,19.79
2023-04-16T04:28:50.103Z,20.30
2023-04-16T04:31:19.145Z,19.58
2023-04-16T04:33:48.024Z,19.24
2023-04-16T04:36:18.545Z,19.42
2023-04-16T04:38:49.193Z,19.46
2023-04-16T04:41:17.273Z,20.16
2023-04-16T04:43:47.709Z,20.24
2023-04-16T04:46:15.921Z,19.38
2023-04-16T04:48:43.686Z,19.80
2023-04-16T04:51:11.786Z,19.20
2023-04-16T04:53:39.583Z,18.91
2023-04-16T04:56:12.122Z,18.71
2023-04-16T04:58:44.359Z,18.77
2023-04-16T05:01:12.990Z,18.70
2023-04-16T05:03:40.941Z,19.17
2023-04-16T05:06:08.873Z,20.11
2023-04-16T05:08:36.717Z,19.83
2023-04-16T05:11:04.669Z,21.12
2023-04-16T05:13:32.487Z,21.19
2023-04-16T05:16:00.445Z,21.42
2023-04-16T05:18:28.299Z,22.30
2023-04-16T05:20:56.244Z,22.50
2023-04-16T05:23:24.021Z,21.96
2023-04-16T05:25:51.901Z,22.02
2023-04-16T05:28:19.815Z,21.72
2023-04-16T05:30:47.662Z,21.26
2023-04-16T05:33:15.543Z,21.38
2023-04-16T05:35:43.312Z,21.52
2023-04-16T05:38:13.059Z,21.64
2023-04-16T05:40:40.796Z,21.23
2023-04-16T05:43:08.533Z,20.54
2023-04-16T05:45:41.125Z,19.71
2023-04-16T05:48:09.523Z,20.12
2023-04-16T05:50:37.780Z,19.34
2023-04-16T05:53:09.504Z,18.82
2023-04-16T05:55:37.376Z,18.20
2023-04-16T05:58:07.166Z,18.52
2023-04-16T06:00:35.136Z,19.31
2023-04-16T06:03:03.868Z,17.60
2023-04-16T06:05:31.965Z,17.51
2023-04-16T06:07:59.777Z,17.49
2023-04-16T06:10:28.252Z,17.63
2023-04-16T06:12:56.385Z,17.46
2023-04-16T06:15:27.140Z,17.13
2023-04-16T06:18:00.681Z,16.53
2023-04-16T06:20:28.851Z,15.81
2023-04-16T06:22:59.539Z,15.54
2023-04-16T06:25:27.311Z,16.16
2023-04-16T06:27:55.155Z,16.46
2023-04-16T06:30:22.866Z,15.64
2023-04-16T06:32:50.772Z,16.16
2023-04-16T06:35:20.370Z,16.38
2023-04-16T06:37:48.297Z,16.76
2023-04-16T06:40:16.129Z,17.18
2023-04-16T06:42:46.546Z,17.91
2023-04-16T06:45:14.378Z,18.21
2023-04-16T06:47:42.221Z,17.41
2023-04-16T06:50:10.463Z,17.56
2023-04-16T06:52:40.747Z,17.64
2023-04-16T06:55:09.928Z,17.95
2023-04-16T06:57:37.919Z,17.99
2023-04-16T07:00:06.350Z,17.77
2023-04-16T07:02:34.387Z,17.63
2023-04-16T07:05:02.278Z,17.50
2023-04-16T07:07:31.497Z,17.68
2023-04-16T07:09:59.965Z,18.17
2023-04-16T07:12:27.778Z,18.15
2023-04-16T07:14:55.946Z,17.92
2023-04-16T07:17:23.724Z,17.77
2023-04-16T07:19:52.148Z,17.78
2023-04-16T07:22:20.484Z,17.05
2023-04-16T07:24:48.219Z,17.28
2023-04-16T07:27:16.955Z,17.20
2023-04-16T07:29:46.070Z,16.05
2023-04-16T07:32:15.477Z,16.61
2023-04-16T07:34:43.729Z,17.31
2023-04-16T07:37:11.516Z,16.10
2023-04-16T07:39:39.396Z,16.53
2023-04-16T07:42:07.263Z,16.63
2023-04-16T07:44:35.009Z,16.18
2023-04-16T07:47:04.842Z,16.62
2023-04-16T07:49:54.758Z,16.78
2023-04-16T07:52:22.562Z,17.10
2023-04-16T07:54:51.774Z,16.87
2023-04-16T07:57:19.862Z,16.34
2023-04-16T07:59:47.594Z,16.58
2023-04-16T08:02:16.715Z,16.59
2023-04-16T08:04:45.089Z,16.96
2023-04-16T08:07:13.148Z,16.80
2023-04-16T08:09:51.745Z,17.05
2023-04-16T08:12:21.025Z,16.39
2023-04-16T08:14:49.098Z,16.04
2023-04-16T08:17:16.841Z,16.21
2023-04-16T08:19:45.429Z,15.82
2023-04-16T08:22:13.758Z,17.03
2023-04-16T08:24:41.858Z,16.40
2023-04-16T08:27:19.380Z,16.18
2023-04-16T08:29:48.536Z,16.60
2023-04-16T08:32:16.418Z,17.04
2023-04-16T08:34:44.327Z,16.40
2023-04-16T08:37:12.093Z,16.80
2023-04-16T08:39:40.025Z,16.67
2023-04-16T08:42:13.684Z,16.45
2023-04-16T08:44:44.630Z,16.11
2023-04-16T08:47:12.947Z,15.99
2023-04-16T08:49:45.262Z,16.80
2023-04-16T08:52:19.952Z,16.75
2023-04-16T08:54:58.475Z,15.95
2023-04-16T08:57:31.692Z,16.18
2023-04-16T08:59:59.784Z,17.42
2023-04-16T09:02:28.192Z,16.64
2023-04-16T09:04:56.811Z,16.65
2023-04-16T09:07:24.801Z,16.73
2023-04-16T09:09:53.628Z,17.04
2023-04-16T09:12:24.186Z,17.56
2023-04-16T09:14:51.998Z,16.88
2023-04-16T09:17:19.885Z,16.49
2023-04-16T09:19:47.935Z,16.69
2023-04-16T09:22:17.290Z,17.32
2023-04-16T09:24:45.045Z,16.71
2023-04-16T09:27:13.304Z,17.49
2023-04-16T09:29:41.800Z,17.03
2023-04-16T09:32:11.737Z,17.27
2023-04-16T09:34:55.743Z,17.42
2023-04-16T09:37:24.064Z,17.01
2023-04-16T09:39:57.661Z,18.78
2023-04-16T09:42:27.544Z,17.18
2023-04-16T09:44:58.658Z,18.92
2023-04-16T09:47:40.200Z,18.56
2023-04-16T09:50:11.260Z,17.93
2023-04-16T09:52:40.484Z,17.48
2023-04-16T09:55:10.859Z,17.35
2023-04-16T09:57:44.737Z,17.25
2023-04-16T10:00:13.154Z,17.67
2023-04-16T10:02:42.637Z,17.21
2023-04-16T10:05:16.874Z,17.99
2023-04-16T10:07:44.999Z,17.26
2023-04-16T10:10:12.775Z,17.25
2023-04-16T10:12:40.789Z,17.35
2023-04-16T10:15:08.894Z,17.74
2023-04-16T10:17:37.316Z,16.84
2023-04-16T10:20:09.385Z,17.15
2023-04-16T10:22:39.727Z,17.15
2023-04-16T10:25:08.634Z,17.96
2023-04-16T10:27:37.415Z,17.10
2023-04-16T10:30:07.236Z,16.98
2023-04-16T10:32:35.771Z,16.97
2023-04-16T10:35:03.935Z,16.89
2023-04-16T10:37:35.512Z,16.21
2023-04-16T10:40:25.313Z,16.12
2023-04-16T10:42:57.949Z,16.52
2023-04-16T10:45:35.209Z,16.73
2023-04-16T10:48:10.133Z,16.18
2023-04-16T10:50:38.461Z,17.04
2023-04-16T10:53:27.317Z,16.50
2023-04-16T10:56:08.566Z,17.35
2023-04-16T10:58:47.997Z,16.95
2023-04-16T11:01:16.941Z,17.14
2023-04-16T11:03:47.542Z,17.10
2023-04-16T11:06:26.805Z,17.09
2023-04-16T11:09:06.304Z,17.44
2023-04-16T11:11:39.697Z,17.35
2023-04-16T11:14:08.416Z,17.40
2023-04-16T11:16:36.310Z,17.38
2023-04-16T11:19:04.115Z,17.15
2023-04-16T11:21:32.699Z,17.87
2023-04-16T11:24:00.471Z,17.36
2023-04-16T11:26:30.814Z,16.90
2023-04-16T11:29:00.345Z,17.04
2023-04-16T11:31:28.302Z,17.60
2023-04-16T11:33:56.972Z,17.66
2023-04-16T11:36:26.956Z,17.67
2023-04-16T11:39:02.200Z,17.84
2023-04-16T11:41:30.041Z,18.22
2023-04-16T11:43:58.005Z,18.20
2023-04-16T11:46:38.881Z,17.91
2023-04-16T11:49:06.754Z,17.89
2023-04-16T11:51:42.799Z,18.24
2023-04-16T11:54:12.190Z,18.43
2023-04-16T11:56:46.977Z,17.71
2023-04-16T11:59:17.643Z,18.71
2023-04-16T12:01:55.829Z,18.75
2023-04-16T12:04:26.361Z,18.27
2023-04-16T12:07:14.322Z,18.85
2023-04-16T12:09:44.294Z,18.07
2023-04-16T12:12:26.615Z,17.87
2023-04-16T12:14:56.889Z,18.86
2023-04-16T12:17:24.963Z,18.05
2023-04-16T12:20:00.877Z,18.01
2023-04-16T12:22:28.646Z,17.92
2023-04-16T12:24:59.906Z,17.43
2023-04-16T12:27:53.366Z,18.49
2023-04-16T12:30:23.194Z,18.48
2023-04-16T12:32:52.743Z,18.50
2023-04-16T12:35:33.944Z,17.54
2023-04-16T12:38:01.747Z,18.36
2023-04-16T12:40:29.526Z,18.52
2023-04-16T12:42:57.685Z,18.23
2023-04-16T12:45:25.765Z,18.87
2023-04-16T12:47:53.644Z,18.40
2023-04-16T12:50:21.833Z,18.15
2023-04-16T12:52:49.655Z,18.26
2023-04-16T12:55:20.838Z,17.93
2023-04-16T12:57:49.503Z,18.44
2023-04-16T13:00:22.661Z,18.14
2023-04-16T13:02:50.383Z,18.67
2023-04-16T13:05:19.440Z,18.25
2023-04-16T13:07:47.407Z,18.11
2023-04-16T13:10:15.257Z,18.58
2023-04-16T13:12:45.473Z,19.01
2023-04-16T13:15:13.274Z,18.59
2023-04-16T13:17:41.164Z,18.54
2023-04-16T13:20:09.546Z,18.60
2023-04-16T13:22:41.469Z,18.93
2023-04-16T13:25:09.991Z,18.35
2023-04-16T13:27:40.483Z,18.71
2023-04-16T20:37:48.551Z,25.74
2023-04-16T20:40:16.556Z,25.21
2023-04-16T20:42:46.920Z,25.24
2023-04-16T20:45:14.724Z,25.28
2023-04-16T20:47:43.560Z,25.47
2023-04-16T20:50:12.219Z,25.66
2023-04-16T20:52:40.026Z,25.06
2023-04-16T20:55:08.694Z,24.70
2023-04-16T20:57:42.174Z,24.70
2023-04-16T21:00:11.674Z,24.89
2023-04-16T21:02:39.706Z,24.58
2023-04-16T21:05:16.715Z,25.35
2023-04-16T21:07:44.498Z,25.38
2023-04-16T21:10:12.251Z,24.95
2023-04-16T21:12:39.991Z,25.36
2023-04-16T21:15:08.112Z,25.60
2023-04-16T21:17:38.708Z,25.29
2023-04-16T21:20:10.756Z,25.65
2023-04-16T21:22:38.490Z,25.23
2023-04-16T21:25:07.005Z,25.98
2023-04-16T21:27:34.643Z,25.95
2023-04-16T21:30:02.466Z,25.76
2023-04-16T21:32:31.540Z,25.56
2023-04-16T21:34:59.683Z,26.13
2023-04-16T21:37:27.401Z,25.68
2023-04-16T21:39:55.101Z,25.90
2023-04-16T21:42:22.787Z,26.03
2023-04-16T21:44:50.574Z,26.19
2023-04-16T21:47:18.712Z,26.16
2023-04-16T21:49:46.574Z,26.37
2023-04-16T21:52:14.279Z,26.23
2023-04-16T21:54:42.108Z,26.55
2023-04-16T21:57:10.108Z,26.30
2023-04-16T21:59:38.521Z,26.14
2023-04-16T22:02:06.582Z,26.61
2023-04-16T22:04:40.268Z,26.34
2023-04-16T22:07:11.847Z,26.45
2023-04-16T22:09:40.886Z,26.14
2023-04-16T22:12:11.510Z,26.84
2023-04-16T22:14:46.227Z,27.15
2023-04-16T22:17:17.273Z,27.22
2023-04-16T22:19:45.243Z,27.37
2023-04-16T22:22:13.562Z,27.53
2023-04-16T22:24:41.339Z,26.82
2023-04-16T22:27:09.157Z,27.08
2023-04-16T22:29:38.122Z,27.24
2023-04-16T22:32:06.187Z,27.73
2023-04-16T22:34:34.204Z,26.74
2023-04-16T22:37:03.192Z,26.91
2023-04-16T22:39:31.772Z,27.87
2023-04-16T22:41:59.683Z,26.72
2023-04-16T22:44:27.438Z,27.39
2023-04-16T22:46:55.254Z,27.53
2023-04-16T22:49:23.068Z,27.54
2023-04-16T22:51:50.880Z,27.69
2023-04-16T22:54:18.596Z,28.58
2023-04-16T22:56:46.975Z,27.81
2023-04-16T22:59:14.726Z,27.79
2023-04-16T23:01:42.941Z,27.63
2023-04-16T23:04:11.165Z,27.24
2023-04-16T23:06:40.650Z,27.28
2023-04-16T23:09:09.009Z,27.49
2023-04-16T23:11:36.945Z,27.15
2023-04-16T23:14:05.147Z,28.20
2023-04-16T23:16:32.900Z,27.94
2023-04-16T23:19:00.575Z,28.76
2023-04-16T23:21:28.255Z,28.10
2023-04-16T23:23:57.241Z,27.61
2023-04-16T23:26:25.016Z,28.41
2023-04-16T23:28:52.812Z,27.85
2023-04-16T23:31:20.740Z,28.13
2023-04-16T23:33:48.488Z,28.13
2023-04-16T23:36:16.551Z,28.38
2023-04-16T23:38:44.246Z,28.80
2023-04-16T23:41:12.082Z,28.88
2023-04-16T23:43:40.848Z,28.60
2023-04-16T23:46:08.688Z,28.48
2023-04-16T23:48:36.589Z,28.19
2023-04-16T23:51:04.563Z,28.57
2023-04-16T23:53:32.348Z,29.59
2023-04-16T23:56:00.322Z,28.88
2023-04-16T23:58:28.143Z,28.36
